Thorco Attraction — V2BS1 — position and weather

sailwx.info

Track history (hours):
 
Tides and Currents Weather Stations Pressure Air Temp Water Temp Dewpoint Dewpoint Depression Visibility Wind Speed Wind Dir Waves Ship Positions

Thorco Attraction

Last reported at 2015-Jul-26 20:33 UTC. Time now 2015-Sep-05 10:16 UTC.
Position S 24°46' W 045°53'.
Warning: this ship's position is 40 days out of date.

Length 132 m; draft 5.3 m.

Type: Cargo ship. MMSI: 304908000.

Date/timePositionNaut miles runAvg speedWind from/ knotsBaromVisibWave heightAir tempDewpointWater temp
2015-Jul-26 20:33S 24°46' W 045°53'1212.2
2015-Jul-26 19:33S 24°52' W 046°04'1212.2
2015-Jul-26 18:33S 24°60' W 046°15'1212.4
2015-Jul-26 17:33S 25°07' W 046°26'1212.3
2015-Jul-26 16:33S 25°14' W 046°37'  
2015-Jul-23 08:33S 34°48' W 057°28'1313.0
2015-Jul-23 07:34S 34°44' W 057°43'1110.8
2015-Jul-23 06:33S 34°41' W 057°56'1413.5
2015-Jul-23 05:34S 34°37' W 058°12'1111.2
2015-Jul-23 04:34S 34°30' W 058°22'13 0.3
2015-Jul-21 05:08S 34°37' W 058°10'711.7
2015-Jul-21 04:33S 34°40' W 058°02'1211.6
2015-Jul-21 03:33S 34°44' W 057°49'9 8.8
2015-Jul-21 02:33S 34°45' W 057°38'  
Track history (hours):
 
Tides and Currents Weather Stations Pressure Air Temp Water Temp Dewpoint Dewpoint Depression Visibility Wind Speed Wind Dir Waves Ship Positions

Thorco Attraction

Last reported at 2015-Jul-26 20:33 UTC. Time now 2015-Sep-05 10:16 UTC.
Position S 24°46' W 045°53'.
Warning: this ship's position is 40 days out of date.

Length 132 m; draft 5.3 m.

Type: Cargo ship. MMSI: 304908000.

Date/timePositionNaut miles runAvg speedWind from/ knotsBaromVisibWave heightAir tempDewpointWater temp
2015-Jul-26 20:33S 24°46' W 045°53'1212.2
2015-Jul-26 19:33S 24°52' W 046°04'1212.2
2015-Jul-26 18:33S 24°60' W 046°15'1212.4
2015-Jul-26 17:33S 25°07' W 046°26'1212.3
2015-Jul-26 16:33S 25°14' W 046°37'  
2015-Jul-23 08:33S 34°48' W 057°28'1313.0
2015-Jul-23 07:34S 34°44' W 057°43'1110.8
2015-Jul-23 06:33S 34°41' W 057°56'1413.5
2015-Jul-23 05:34S 34°37' W 058°12'1111.2
2015-Jul-23 04:34S 34°30' W 058°22'13 0.3
2015-Jul-21 05:08S 34°37' W 058°10'711.7
2015-Jul-21 04:33S 34°40' W 058°02'1211.6
2015-Jul-21 03:33S 34°44' W 057°49'9 8.8
2015-Jul-21 02:33S 34°45' W 057°38'  

Dump ship's entire track history